createdAt,value
2022-08-21T00:00:14.455Z,153859.88
2022-08-21T00:02:48.340Z,153858.59
2022-08-21T00:05:17.184Z,153885.84
2022-08-21T00:07:45.004Z,153874.13
2022-08-21T00:10:13.690Z,153884.56
2022-08-21T00:12:42.359Z,153856.00
2022-08-21T00:15:16.757Z,153872.81
2022-08-21T00:17:44.504Z,153862.47
2022-08-21T00:20:15.291Z,153841.75
2022-08-21T00:22:43.304Z,153841.75
2022-08-21T00:25:13.067Z,153808.03
2022-08-21T00:27:42.900Z,153859.88
2022-08-21T00:30:22.978Z,153826.16
2022-08-21T00:32:52.014Z,153784.72
2022-08-21T00:35:23.576Z,153797.69
2022-08-21T00:37:51.559Z,153764.00
2022-08-21T00:40:33.756Z,153778.25
2022-08-21T00:43:01.663Z,153798.97
2022-08-21T00:45:31.228Z,153758.78
2022-08-21T00:47:59.398Z,153695.31
2022-08-21T00:50:30.922Z,153744.53
2022-08-21T00:52:59.298Z,153756.19
2022-08-21T00:55:27.471Z,153735.47
2022-08-21T00:58:01.456Z,153744.53
2022-08-21T01:00:33.248Z,153751.06
2022-08-21T01:03:07.244Z,153766.59
2022-08-21T01:05:37.513Z,153792.50
2022-08-21T01:08:05.920Z,153795.09
2022-08-21T01:10:34.543Z,153809.34
2022-08-21T01:13:02.358Z,153793.78
2022-08-21T01:15:36.547Z,153833.97
2022-08-21T01:18:05.569Z,153852.09
2022-08-21T01:20:33.908Z,153867.66
2022-08-21T01:23:04.191Z,153875.41
2022-08-21T01:25:32.397Z,153885.84
2022-08-21T01:28:06.742Z,153871.53
2022-08-21T01:30:37.188Z,153883.22
2022-08-21T01:33:04.996Z,153863.75
2022-08-21T01:35:33.032Z,153876.72
2022-08-21T01:38:00.716Z,153876.72
2022-08-21T01:40:30.036Z,153866.34
2022-08-21T01:42:57.969Z,153780.84
2022-08-21T01:45:27.083Z,153802.84
2022-08-21T01:47:54.907Z,153796.38
2022-08-21T01:50:23.325Z,153726.41
2022-08-21T01:52:52.865Z,153765.25
2022-08-21T01:55:21.707Z,153731.59
2022-08-21T01:57:51.504Z,153705.69
2022-08-21T02:00:23.811Z,153669.41
2022-08-21T02:02:52.493Z,153656.47
2022-08-21T02:05:20.743Z,153659.06
2022-08-21T02:07:50.956Z,153653.88
2022-08-21T02:10:21.123Z,153624.09
2022-08-21T02:12:50.614Z,153638.34
2022-08-21T02:15:19.641Z,153627.97
2022-08-21T02:17:50.572Z,153617.63
2022-08-21T02:20:22.350Z,153603.38
2022-08-21T02:22:50.469Z,153600.78
2022-08-21T02:25:18.919Z,153590.41
2022-08-21T02:27:48.575Z,153586.53
2022-08-21T02:30:20.763Z,153567.09
2022-08-21T02:32:48.625Z,153567.09
2022-08-21T02:35:16.462Z,153554.13
2022-08-21T02:37:50.387Z,153547.59
2022-08-21T02:40:20.015Z,153535.97
2022-08-21T02:42:47.962Z,153535.97
2022-08-21T02:45:18.283Z,153521.75
2022-08-21T02:47:50.257Z,153524.31
2022-08-21T02:50:21.616Z,153491.94
2022-08-21T02:52:51.800Z,153489.34
2022-08-21T02:55:24.155Z,153507.50
2022-08-21T02:57:51.974Z,153497.13
2022-08-21T03:00:22.432Z,153489.34
2022-08-21T03:02:50.603Z,153507.50
2022-08-21T03:05:19.341Z,153502.31
2022-08-21T03:07:48.535Z,153519.16
2022-08-21T03:10:17.421Z,153510.09
2022-08-21T03:12:45.206Z,153489.34
2022-08-21T03:15:19.135Z,153503.59
2022-08-21T03:17:49.936Z,153525.63
2022-08-21T03:20:20.857Z,153538.56
2022-08-21T03:22:48.611Z,153515.25
2022-08-21T03:25:22.469Z,153515.25
2022-08-21T03:27:59.959Z,153529.50
2022-08-21T03:30:28.039Z,153532.09
2022-08-21T03:32:57.505Z,153525.63
2022-08-21T03:35:25.519Z,153530.81
2022-08-21T03:37:54.724Z,153526.91
2022-08-21T03:40:23.397Z,153512.66
2022-08-21T03:42:51.116Z,153491.94
2022-08-21T03:45:22.808Z,153491.94
2022-08-21T03:47:56.793Z,153486.81
2022-08-21T03:50:27.286Z,153490.66
2022-08-21T03:52:55.197Z,153447.94
2022-08-21T03:55:22.982Z,153491.94
2022-08-21T03:57:50.681Z,153481.63
2022-08-21T04:00:19.977Z,153463.44
2022-08-21T04:02:48.374Z,153436.28
2022-08-21T04:05:28.227Z,153418.19
2022-08-21T04:08:00.463Z,153437.59
2022-08-21T04:10:29.583Z,153444.06
2022-08-21T04:12:57.672Z,153423.38
2022-08-21T04:15:27.210Z,153416.84
2022-08-21T04:17:55.733Z,153419.44
2022-08-21T04:20:24.235Z,153409.13
2022-08-21T04:22:52.820Z,153385.81
2022-08-21T04:25:23.342Z,153365.13
2022-08-21T04:27:52.116Z,153384.50
2022-08-21T04:30:19.994Z,153393.56
2022-08-21T04:32:49.939Z,153381.91
2022-08-21T04:35:19.571Z,153383.22
2022-08-21T04:37:47.459Z,153358.63
2022-08-21T04:40:17.783Z,153341.81
2022-08-21T04:42:50.915Z,153334.03
2022-08-21T04:45:22.940Z,153335.31
2022-08-21T04:47:53.395Z,153330.19
2022-08-21T04:50:22.286Z,153326.25
2022-08-21T04:52:50.348Z,153332.72
2022-08-21T04:55:19.646Z,153334.03
2022-08-21T04:57:49.508Z,153339.22
2022-08-21T05:00:19.781Z,153343.09
2022-08-21T05:02:48.676Z,153369.00
2022-08-21T05:05:17.312Z,153378.03
2022-08-21T05:07:47.117Z,153378.03
2022-08-21T05:10:16.286Z,153376.78
2022-08-21T05:12:45.176Z,153389.69
2022-08-21T05:15:14.480Z,153375.44
2022-08-21T05:17:42.876Z,153415.59
2022-08-21T05:20:12.206Z,153436.28
2022-08-21T05:22:40.274Z,153479.03
2022-08-21T05:25:10.463Z,153495.84
2022-08-21T05:27:39.236Z,153528.22
2022-08-21T05:30:09.699Z,153541.16
2022-08-21T05:32:39.327Z,153574.88
2022-08-21T05:35:08.552Z,153618.91
2022-08-21T05:37:36.824Z,153656.47
2022-08-21T05:40:21.144Z,153688.84
2022-08-21T05:42:54.790Z,153730.28
2022-08-21T05:45:41.681Z,153766.59
2022-08-21T05:48:15.305Z,153770.47
2022-08-21T05:50:43.525Z,153818.41
2022-08-21T05:53:11.857Z,153849.50
2022-08-21T05:55:45.292Z,153871.53
2022-08-21T05:58:15.066Z,153918.25
2022-08-21T06:00:43.210Z,153955.84
2022-08-21T06:03:15.387Z,153986.97
2022-08-21T06:05:43.359Z,154028.44
2022-08-21T06:08:11.179Z,154080.31
2022-08-21T06:10:38.916Z,154121.78
2022-08-21T06:13:06.847Z,154124.41
2022-08-21T06:15:34.749Z,154184.13
2022-08-21T06:18:02.602Z,154197.06
2022-08-21T06:20:32.491Z,154251.56
2022-08-21T06:23:00.507Z,154313.81
2022-08-21T06:25:28.793Z,154328.09
2022-08-21T06:28:03.255Z,154339.78
2022-08-21T06:30:31.196Z,154411.19
2022-08-21T06:32:59.459Z,154424.13
2022-08-21T06:35:29.869Z,154424.13
2022-08-21T06:37:59.724Z,154504.69
2022-08-21T06:40:29.856Z,154537.13
2022-08-21T06:42:58.532Z,154557.88
2022-08-21T06:45:28.255Z,154563.09
2022-08-21T06:48:00.165Z,154585.19
2022-08-21T06:50:27.951Z,154673.47
2022-08-21T06:53:03.041Z,154705.94
2022-08-21T06:55:30.856Z,154756.63
2022-08-21T06:57:58.645Z,154808.59
2022-08-21T07:00:26.580Z,154695.50
2022-08-21T07:02:54.366Z,154760.53
2022-08-21T07:05:22.498Z,154847.59
2022-08-21T07:07:50.223Z,154889.16
2022-08-21T07:10:21.924Z,154960.66
2022-08-21T07:12:50.691Z,154952.84
2022-08-21T07:15:28.470Z,154963.25
2022-08-21T07:17:56.168Z,154978.88
2022-08-21T07:20:24.010Z,154999.66
2022-08-21T07:22:51.999Z,155042.56
2022-08-21T07:25:21.299Z,154990.56
2022-08-21T07:27:49.149Z,155056.88
2022-08-21T07:30:17.063Z,154986.66
2022-08-21T07:32:45.020Z,155043.84
2022-08-21T07:35:13.322Z,155103.69
2022-08-21T07:37:41.109Z,155114.03
2022-08-21T07:40:10.208Z,155156.97
2022-08-21T07:42:43.642Z,155132.25
2022-08-21T07:45:12.930Z,155130.97
2022-08-21T07:47:42.239Z,155185.59
2022-08-21T07:50:12.060Z,155190.78
2022-08-21T07:52:40.454Z,155220.75
2022-08-21T07:55:09.319Z,155181.66
2022-08-21T07:57:37.066Z,155249.34
2022-08-21T08:00:11.059Z,155300.06
2022-08-21T08:02:38.930Z,155362.47
2022-08-21T08:05:10.087Z,155425.00
2022-08-21T08:07:38.429Z,155503.09
2022-08-21T08:10:08.621Z,155426.28
2022-08-21T08:12:36.579Z,155349.50
2022-08-21T08:15:07.891Z,155406.75
2022-08-21T08:17:35.795Z,155564.25
2022-08-21T08:20:03.894Z,155630.66
2022-08-21T08:22:31.763Z,155733.53
2022-08-21T08:25:00.609Z,155714.00
2022-08-21T08:27:28.448Z,155742.63
2022-08-21T08:29:56.610Z,155650.19
2022-08-21T08:32:26.000Z,155677.50
2022-08-21T08:34:53.779Z,155682.72
2022-08-21T08:37:22.738Z,155588.97
2022-08-21T08:39:53.241Z,155708.78
2022-08-21T08:42:32.764Z,155704.88
2022-08-21T08:45:06.878Z,155833.81
2022-08-21T08:47:39.551Z,155751.75
2022-08-21T08:50:11.780Z,155652.81
2022-08-21T08:52:45.331Z,155823.34
2022-08-21T08:55:17.229Z,155858.56
2022-08-21T08:57:49.355Z,155858.56
2022-08-21T09:00:21.638Z,155848.16
2022-08-21T09:02:55.125Z,155654.09
2022-08-21T09:05:27.918Z,155637.19
2022-08-21T09:08:22.668Z,155726.97
2022-08-21T09:10:59.082Z,155738.69
2022-08-21T09:13:38.753Z,155798.63
2022-08-21T09:16:15.103Z,155682.72
2022-08-21T09:18:55.588Z,155686.66
2022-08-21T09:21:38.465Z,155839.03
2022-08-21T09:24:28.774Z,155930.22
2022-08-21T09:27:04.077Z,156020.13
2022-08-21T09:29:35.494Z,155818.16
2022-08-21T09:32:06.160Z,155793.41
2022-08-21T09:34:35.382Z,155935.44
2022-08-21T09:37:03.175Z,155863.78
2022-08-21T09:39:32.974Z,155971.88
2022-08-21T09:42:11.687Z,156056.63
2022-08-21T09:44:44.363Z,156021.41
2022-08-21T09:47:13.835Z,155936.72
2022-08-21T09:49:44.658Z,155914.59
2022-08-21T09:52:20.258Z,155889.81
2022-08-21T09:54:48.605Z,156147.88
2022-08-21T09:57:39.344Z,156073.56
2022-08-21T10:00:28.253Z,155958.88
2022-08-21T10:02:56.223Z,155880.72
2022-08-21T10:05:29.231Z,155975.81
2022-08-21T10:07:56.993Z,156087.91
2022-08-21T10:10:27.985Z,156145.25
2022-08-21T10:13:04.877Z,156286.06
2022-08-21T10:15:42.738Z,156261.28
2022-08-21T10:18:22.942Z,156231.31
2022-08-21T10:20:59.607Z,156147.88
2022-08-21T10:23:41.827Z,156386.44
2022-08-21T10:26:20.388Z,156353.84
2022-08-21T10:28:58.123Z,156438.66
2022-08-21T10:31:38.570Z,156445.19
2022-08-21T10:34:22.811Z,156471.25
2022-08-21T10:37:10.433Z,156633.09
2022-08-21T10:39:48.498Z,156755.69
2022-08-21T10:42:33.566Z,156755.69
2022-08-21T10:45:16.040Z,156651.34
2022-08-21T10:47:49.317Z,156536.47
2022-08-21T10:50:27.102Z,156574.28
2022-08-21T10:53:12.678Z,156600.44
2022-08-21T10:55:46.539Z,156597.81
2022-08-21T10:58:20.726Z,156406.06
2022-08-21T11:00:51.710Z,156361.69
2022-08-21T11:03:26.203Z,156541.69
2022-08-21T11:05:56.162Z,156738.78
2022-08-21T11:08:32.122Z,156866.69
2022-08-21T11:11:08.679Z,156834.06
2022-08-21T11:13:42.526Z,156814.53
2022-08-21T11:16:18.319Z,156878.44
2022-08-21T11:18:51.192Z,156878.44
2022-08-21T11:21:31.782Z,156712.66
2022-08-21T11:24:05.985Z,156721.81
2022-08-21T11:26:38.554Z,156851.03
2022-08-21T11:29:12.921Z,156839.28
2022-08-21T11:31:54.558Z,156883.66
2022-08-21T11:34:39.183Z,156875.88
2022-08-21T11:37:15.991Z,156707.44
2022-08-21T11:39:52.798Z,156466.03
2022-08-21T11:42:30.726Z,156642.22
2022-08-21T11:45:15.231Z,156680.06
2022-08-21T11:47:54.195Z,156610.88
2022-08-21T11:50:34.153Z,156635.66
2022-08-21T11:53:13.479Z,156806.69
2022-08-21T11:55:46.811Z,156861.50
2022-08-21T11:58:22.536Z,156862.78
2022-08-21T12:00:56.074Z,156879.75
2022-08-21T12:03:28.820Z,156901.94
2022-08-21T12:06:00.381Z,156785.81
2022-08-21T12:08:31.422Z,156774.06
2022-08-21T12:11:07.055Z,156466.03
2022-08-21T12:13:40.501Z,156710.06
2022-08-21T12:16:12.905Z,156623.91
2022-08-21T12:18:41.252Z,156666.97
2022-08-21T12:21:33.273Z,156775.34
2022-08-21T12:24:19.006Z,156693.09
2022-08-21T12:26:54.032Z,156678.72
2022-08-21T12:29:27.750Z,156806.69
2022-08-21T12:31:59.823Z,156890.19
2022-08-21T12:34:38.771Z,156809.28
2022-08-21T12:37:15.844Z,156899.38
2022-08-21T12:39:46.888Z,156813.19
2022-08-21T12:42:22.898Z,156626.53
2022-08-21T12:44:55.800Z,156644.84
2022-08-21T12:47:29.568Z,156686.56
2022-08-21T12:50:04.611Z,156905.88
2022-08-21T12:52:39.320Z,157137.09
2022-08-21T12:55:09.016Z,157295.19
2022-08-21T12:57:39.913Z,157352.66
2022-08-21T13:00:12.631Z,157463.78
2022-08-21T13:02:50.268Z,157377.50
2022-08-21T13:05:22.494Z,157022.13
2022-08-21T13:07:50.916Z,157189.34
2022-08-21T13:10:22.960Z,157258.53
2022-08-21T13:12:53.183Z,157236.38
2022-08-21T13:15:32.973Z,157259.88
2022-08-21T13:18:03.810Z,157122.72
2022-08-21T13:20:35.328Z,156887.63
2022-08-21T13:23:04.681Z,157155.38
2022-08-21T13:25:37.883Z,156988.16
2022-08-21T13:28:12.495Z,156807.97
2022-08-21T13:30:44.283Z,157056.06
2022-08-21T13:33:14.775Z,156967.28
2022-08-21T13:35:50.934Z,156710.06
2022-08-21T13:38:21.788Z,156886.28
2022-08-21T13:40:58.740Z,156956.81
2022-08-21T13:43:32.443Z,156873.25
2022-08-21T13:46:01.694Z,156873.25
2022-08-21T13:48:32.937Z,156904.53
2022-08-21T13:51:01.832Z,156849.75
2022-08-21T13:53:32.396Z,156798.81
2022-08-21T13:56:01.478Z,156865.41
2022-08-21T13:58:32.639Z,156807.97
2022-08-21T14:01:04.908Z,156946.41
2022-08-21T14:03:38.845Z,157066.53
2022-08-21T14:06:14.442Z,156984.28
2022-08-21T14:08:44.029Z,157124.00
2022-08-21T14:11:14.547Z,157194.53
2022-08-21T14:13:46.597Z,157110.97
2022-08-21T14:16:18.367Z,156980.31
2022-08-21T14:18:49.068Z,156891.50
2022-08-21T14:21:27.358Z,156945.06
2022-08-21T14:24:07.262Z,156921.53
2022-08-21T14:26:38.325Z,156981.66
2022-08-21T14:29:10.927Z,156981.66
2022-08-21T14:31:39.613Z,156844.53
2022-08-21T14:34:18.969Z,156874.53
2022-08-21T14:36:47.870Z,156713.94
2022-08-21T14:39:15.704Z,156791.03
2022-08-21T14:41:43.843Z,156774.06
2022-08-21T14:44:13.056Z,156715.28
2022-08-21T14:46:55.667Z,156690.47
2022-08-21T14:49:27.383Z,156760.97
2022-08-21T14:51:58.240Z,156774.06
2022-08-21T14:54:28.112Z,156691.81
2022-08-21T14:57:02.848Z,156689.19
2022-08-21T14:59:33.605Z,156704.81
2022-08-21T15:02:01.702Z,156694.38
2022-08-21T15:04:29.819Z,156616.13
2022-08-21T15:06:57.708Z,156657.84
2022-08-21T15:09:25.809Z,156605.66
2022-08-21T15:11:55.377Z,156659.13
2022-08-21T15:14:25.733Z,156647.41
2022-08-21T15:16:54.914Z,156599.16
2022-08-21T15:19:23.346Z,156664.38
2022-08-21T15:21:51.342Z,156639.59
2022-08-21T15:24:19.224Z,156578.25
2022-08-21T15:26:48.554Z,156583.47
2022-08-21T15:29:20.710Z,156596.53
2022-08-21T15:31:57.560Z,156608.28
2022-08-21T15:34:27.228Z,156639.59
2022-08-21T15:36:57.215Z,156612.19
2022-08-21T15:39:31.136Z,156633.09
2022-08-21T15:42:02.751Z,156595.25
2022-08-21T15:44:39.621Z,156566.50
2022-08-21T15:47:20.123Z,156566.50
2022-08-21T15:49:47.916Z,156544.31
2022-08-21T15:52:17.080Z,156541.69
2022-08-21T15:54:45.520Z,156480.38
2022-08-21T15:57:15.758Z,156499.97
2022-08-21T15:59:46.623Z,156355.13
2022-08-21T16:02:19.267Z,156421.72
2022-08-21T16:04:47.359Z,156416.47
2022-08-21T16:07:15.958Z,156356.47
2022-08-21T16:09:43.851Z,156421.72
2022-08-21T16:12:16.832Z,156462.13
2022-08-21T16:14:45.263Z,156483.00
2022-08-21T16:17:13.280Z,156379.94
2022-08-21T16:19:42.441Z,156404.75
2022-08-21T16:22:10.209Z,156416.47
2022-08-21T16:24:37.944Z,156423.03
2022-08-21T16:27:08.373Z,156365.59
2022-08-21T16:29:39.473Z,156292.59
2022-08-21T16:32:08.961Z,156318.66
2022-08-21T16:34:37.382Z,156325.16
2022-08-21T16:37:06.672Z,156275.63
2022-08-21T16:39:34.516Z,156286.06
2022-08-21T16:42:02.454Z,156305.66
2022-08-21T16:44:31.094Z,156306.94
2022-08-21T16:46:59.406Z,156266.50
2022-08-21T16:49:27.219Z,156228.69
2022-08-21T16:51:55.035Z,156209.09
2022-08-21T16:54:24.141Z,156199.97
2022-08-21T16:56:52.375Z,156231.31
2022-08-21T16:59:22.226Z,156210.41
2022-08-21T17:01:50.552Z,156203.91
2022-08-21T17:04:20.906Z,156153.03
2022-08-21T17:06:48.772Z,156164.78
2022-08-21T17:09:16.596Z,156113.97
2022-08-21T17:11:49.521Z,156125.69
2022-08-21T17:14:20.633Z,156112.63
2022-08-21T17:16:50.936Z,156091.78
2022-08-21T17:19:19.769Z,156098.34
2022-08-21T17:21:47.568Z,156093.13
2022-08-21T17:24:16.214Z,156070.97
2022-08-21T17:26:46.139Z,156050.13
2022-08-21T17:29:15.952Z,156074.91
2022-08-21T17:31:45.653Z,156037.09
2022-08-21T17:34:15.649Z,156044.88
2022-08-21T17:36:43.442Z,156027.94
2022-08-21T17:39:12.894Z,156014.88
2022-08-21T17:41:46.707Z,155990.16
2022-08-21T17:44:18.764Z,155971.88
2022-08-21T17:46:47.177Z,155951.06
2022-08-21T17:49:16.112Z,155936.72
2022-08-21T17:51:44.323Z,155939.31
2022-08-21T17:54:12.304Z,155918.50
2022-08-21T17:56:43.148Z,155901.53
2022-08-21T17:59:13.071Z,155853.38
2022-08-21T18:01:43.682Z,155870.28
2022-08-21T18:04:11.870Z,155866.38
2022-08-21T18:06:40.360Z,155856.00
2022-08-21T18:09:08.754Z,155829.94
2022-08-21T18:11:37.472Z,155823.34
2022-08-21T18:14:07.915Z,155755.63
2022-08-21T18:16:38.165Z,155738.69
2022-08-21T18:19:09.522Z,155671.00
2022-08-21T18:21:37.402Z,155644.97
2022-08-21T18:24:06.045Z,155616.28
2022-08-21T18:26:37.538Z,155557.72
2022-08-21T18:29:08.468Z,155496.53
2022-08-21T18:31:39.187Z,155432.78
2022-08-21T18:34:11.813Z,155406.75
2022-08-21T18:36:40.049Z,155328.69
2022-08-21T18:39:34.355Z,155318.25
2022-08-21T18:41:56.807Z,155279.25
2022-08-21T18:44:27.396Z,155223.34
2022-08-21T18:46:59.944Z,155207.72
2022-08-21T18:49:28.209Z,155218.13
2022-08-21T18:51:56.828Z,155172.56
2022-08-21T18:54:26.450Z,155143.94
2022-08-21T18:56:55.113Z,155129.69
2022-08-21T18:59:23.944Z,155077.66
2022-08-21T19:01:52.342Z,155020.47
2022-08-21T19:04:42.975Z,154998.34
2022-08-21T19:07:10.763Z,154980.16
2022-08-21T19:09:38.474Z,154947.63
2022-08-21T19:12:09.424Z,154945.03
2022-08-21T19:14:39.299Z,154903.44
2022-08-21T19:17:07.183Z,154846.25
2022-08-21T19:19:39.430Z,154785.19
2022-08-21T19:24:55.583Z,154705.94
2022-08-21T19:27:23.752Z,154692.97
2022-08-21T19:29:51.534Z,154685.16
2022-08-21T19:35:10.279Z,154626.72
2022-08-21T19:37:38.383Z,154589.06
2022-08-21T19:40:09.430Z,154564.38
2022-08-21T19:42:37.495Z,154552.69
2022-08-21T19:45:06.222Z,154560.50
2022-08-21T19:47:34.368Z,154529.31
2022-08-21T19:50:13.227Z,154491.66
2022-08-21T19:52:58.621Z,154487.78
2022-08-21T19:55:26.387Z,154485.19
2022-08-21T19:57:54.696Z,154465.69
2022-08-21T20:00:23.121Z,154469.63
2022-08-21T20:02:52.305Z,154422.84
2022-08-21T20:05:20.233Z,154409.84
2022-08-21T20:07:50.841Z,154435.81
2022-08-21T20:10:18.762Z,154402.09
2022-08-21T20:12:51.367Z,154381.28
2022-08-21T20:15:22.984Z,154355.38
2022-08-21T20:17:51.861Z,154360.53
2022-08-21T20:20:20.895Z,154368.34
2022-08-21T20:22:50.094Z,154365.75
2022-08-21T20:25:21.238Z,154338.50
2022-08-21T20:27:49.738Z,154344.97
2022-08-21T20:30:22.763Z,154339.78
2022-08-21T20:32:50.996Z,154337.19
2022-08-21T20:35:18.879Z,154285.28
2022-08-21T20:37:47.072Z,154273.59
2022-08-21T20:40:32.725Z,154326.84
2022-08-21T20:43:02.432Z,154316.44
2022-08-21T20:45:33.130Z,154299.53
2022-08-21T20:48:05.938Z,154290.47
2022-08-21T20:50:38.407Z,154278.78
2022-08-21T20:53:13.145Z,154278.78
2022-08-21T20:55:48.726Z,154274.91
2022-08-21T20:58:33.024Z,154271.03
2022-08-21T21:01:06.252Z,154267.13
2022-08-21T21:03:37.980Z,154267.13
2022-08-21T21:06:13.897Z,154248.97
2022-08-21T21:08:48.925Z,154252.84
2022-08-21T21:11:21.030Z,154238.56
2022-08-21T21:13:55.269Z,154235.97
2022-08-21T21:16:27.460Z,154250.25
2022-08-21T21:18:59.617Z,154246.38
2022-08-21T21:21:33.480Z,154254.16
2022-08-21T21:24:07.257Z,154259.31
2022-08-21T21:26:48.648Z,154213.94
2022-08-21T21:29:24.686Z,154243.78
2022-08-21T21:31:53.837Z,154243.78
2022-08-21T21:34:22.097Z,154255.44
2022-08-21T21:36:56.316Z,154248.97
2022-08-21T21:39:36.341Z,154252.84
2022-08-21T21:42:12.776Z,154248.97
2022-08-21T21:44:55.752Z,154234.69
2022-08-21T21:47:37.478Z,154225.63
2022-08-21T21:50:28.266Z,154202.28
2022-08-21T21:53:12.799Z,154210.06
2022-08-21T21:55:58.883Z,154203.56
2022-08-21T21:58:46.103Z,154210.06
2022-08-21T22:01:19.727Z,154204.88
2022-08-21T22:04:03.821Z,154184.13
2022-08-21T22:06:40.480Z,154146.47
2022-08-21T22:09:15.775Z,154168.47
2022-08-21T22:11:58.906Z,154180.19
2022-08-21T22:14:34.127Z,154133.47
2022-08-21T22:17:21.519Z,154152.94
2022-08-21T22:19:52.908Z,154127.00
2022-08-21T22:22:24.169Z,154117.91
2022-08-21T22:24:59.209Z,154091.97
2022-08-21T22:27:31.006Z,154108.84
2022-08-21T22:30:02.958Z,154103.66
2022-08-21T22:32:37.488Z,154097.19
2022-08-21T22:35:12.206Z,154079.00
2022-08-21T22:37:43.615Z,154069.91
2022-08-21T22:40:15.981Z,154079.00
2022-08-21T22:42:57.652Z,154076.44
2022-08-21T22:45:27.818Z,154050.50
2022-08-21T22:47:58.399Z,154058.25
2022-08-21T22:50:31.507Z,154051.78
2022-08-21T22:53:02.885Z,154059.56
2022-08-21T22:55:37.558Z,154054.38
2022-08-21T22:58:09.600Z,154069.91
2022-08-21T23:00:47.106Z,154051.78
2022-08-21T23:03:23.372Z,154064.78
2022-08-21T23:05:51.832Z,154045.31
2022-08-21T23:08:26.496Z,154064.78
2022-08-21T23:11:00.138Z,154090.66
2022-08-21T23:13:30.828Z,154081.59
2022-08-21T23:16:08.307Z,154056.97
2022-08-21T23:18:48.602Z,154085.50
2022-08-21T23:21:24.080Z,154085.50
2022-08-21T23:24:06.816Z,154094.59
2022-08-21T23:26:57.167Z,154110.13
2022-08-21T23:29:32.424Z,154041.44
2022-08-21T23:32:11.303Z,154097.19
2022-08-21T23:34:56.115Z,154098.44
2022-08-21T23:37:51.410Z,154082.91
2022-08-21T23:40:41.051Z,154072.53
2022-08-21T23:43:33.160Z,154053.09
2022-08-21T23:46:13.288Z,154043.97
2022-08-21T23:48:55.910Z,154043.97
2022-08-21T23:51:34.182Z,154023.25
2022-08-21T23:54:11.382Z,154005.09
